Time;durP1;ratioP1;P1;durP2;ratioP2;P2;SDS_P1;SDS_P2;PMS_P1;PMS_P2;Temp;Humidity;BMP_temperature;BMP_pressure;BME280_temperature;BME280_humidity;BME280_pressure;Samples;Min_cycle;Max_cycle;Signal;HPM_P1;HPM_P2
2023/09/05 00:01:52;;;;;;;;;;;;;;;26.31;34.32;100679.62;4484656;32;34172;-75
2023/09/05 00:04:20;;;;;;;;;;;;;;;26.38;34.01;100671.59;4484679;31;33780;-75
2023/09/05 00:06:47;;;;;;;;;;;;;;;26.25;34.29;100672.56;4493792;31;34276;-75
2023/09/05 00:09:17;;;;;;;;;;;;;;;25.98;34.58;100669.19;4485248;32;34265;-75
2023/09/05 00:11:45;;;;;;;4.35;2.10;;;;;;;25.42;35.90;100667.56;4486343;31;33821;-75
2023/09/05 00:14:13;;;;;;;;;;;;;;;25.52;35.64;100666.66;4495100;31;34375;-75
2023/09/05 00:16:40;;;;;;;;;;;;;;;25.66;35.61;100666.63;4474099;32;34684;-75
2023/09/05 00:19:08;;;;;;;;;;;;;;;25.42;36.33;100665.81;4486480;31;33917;-74
2023/09/05 00:21:35;;;;;;;;;;;;;;;25.66;35.68;100656.88;4484938;32;34326;-75
2023/09/05 00:24:21;;;;;;;;;;;;;;;25.44;35.85;100660.47;4486500;31;33276;-75
2023/09/05 00:26:50;;;;;;;;;;;;;;;25.83;35.37;100648.88;4490893;31;32887;-74
2023/09/05 00:29:20;;;;;;;;;;;;;;;25.43;36.13;100637.50;4492758;31;34883;-74
2023/09/05 00:31:47;;;;;;;;;;;;;;;25.35;36.24;100644.63;4488847;31;33248;-75
2023/09/05 00:34:15;;;;;;;;;;;;;;;25.30;36.32;100644.59;4489999;31;33894;-75
2023/09/05 00:36:42;;;;;;;;;;;;;;;25.14;36.85;100640.19;4482146;31;34686;-75
2023/09/05 00:39:10;;;;;;;4.60;1.98;;;;;;;25.06;36.87;100642.84;4486048;31;35192;-75
2023/09/05 00:41:37;;;;;;;3.50;2.10;;;;;;;24.21;38.39;100634.84;4492904;31;33855;-74
2023/09/05 00:44:05;;;;;;;3.53;1.70;;;;;;;24.16;38.56;100631.28;4486562;31;33115;-75
2023/09/05 00:46:33;;;;;;;5.03;2.10;;;;;;;23.87;39.44;100633.84;4481511;31;34827;-75
2023/09/05 00:49:02;;;;;;;4.45;1.85;;;;;;;24.43;38.39;100634.88;4474510;31;34207;-75
2023/09/05 00:51:33;;;;;;;;;;;;;;;24.50;38.32;100626.94;4481304;31;33954;-75
2023/09/05 00:54:01;;;;;;;;;;;;;;;24.28;38.59;100625.12;4493429;31;32442;-75
2023/09/05 00:56:28;;;;;;;;;;;;;;;24.14;38.99;100628.66;4493867;31;33946;-75
2023/09/05 00:58:56;;;;;;;;;;;;;;;24.47;38.45;100626.94;4488014;31;35089;-74
2023/09/05 01:01:23;;;;;;;4.72;1.90;;;;;;;24.11;39.00;100622.47;4486302;31;34404;-74
2023/09/05 01:03:51;;;;;;;3.95;1.98;;;;;;;23.89;39.27;100617.13;4493128;31;34502;-75
2023/09/05 01:06:22;;;;;;;;;;;;;;;23.49;40.35;100618.69;4478321;32;34576;-74
2023/09/05 01:08:57;;;;;;;;;;;;;;;23.79;39.76;100610.00;4473504;31;34889;-75
2023/09/05 01:11:24;;;;;;;;;;;;;;;24.16;39.12;100617.16;4493699;31;34146;-74
2023/09/05 01:13:52;;;;;;;4.90;2.12;;;;;;;23.79;40.02;100619.72;4472558;31;33210;-75
2023/09/05 01:16:20;;;;;;;;;;;;;;;23.75;39.95;100613.50;4492248;31;34377;-74
2023/09/05 01:18:48;;;;;;;;;;;;;;;23.66;40.23;100614.34;4492209;31;34874;-74
2023/09/05 01:21:24;;;;;;;;;;;;;;;23.92;39.61;100610.94;4494469;31;33911;-74
2023/09/05 01:24:11;;;;;;;;;;;;;;;23.88;39.62;100609.16;4493375;31;33262;-75
2023/09/05 01:26:40;;;;;;;;;;;;;;;23.91;39.65;100609.16;4488818;31;34111;-75
2023/09/05 01:29:07;;;;;;;;;;;;;;;23.79;39.95;100604.72;4471115;32;34563;-74
2023/09/05 01:31:35;;;;;;;4.00;2.12;;;;;;;23.32;40.72;100603.59;4471447;31;34707;-75
2023/09/05 01:34:02;;;;;;;;;;;;;;;23.51;40.53;100611.62;4492039;31;33662;-74
2023/09/05 01:36:30;;;;;;;;;;;;;;;23.61;40.42;100610.78;4491953;31;32747;-74
2023/09/05 01:38:58;;;;;;;4.10;2.28;;;;;;;23.48;40.66;100622.19;4496967;31;34211;-74
2023/09/05 01:41:25;;;;;;;;;;;;;;;23.22;40.98;100617.66;4492650;31;33604;-74
2023/09/05 01:43:52;;;;;;;;;;;;;;;23.13;41.49;100617.59;4493059;31;34154;-74
2023/09/05 01:46:20;;;;;;;;;;;;;;;23.79;40.32;100619.72;4470565;32;34296;-74
2023/09/05 01:48:47;;;;;;;;;;;;;;;23.57;40.66;100624.88;4497214;31;33992;-75
2023/09/05 01:51:15;;;;;;;;;;;;;;;23.72;40.51;100618.75;4491683;31;34210;-74
2023/09/05 01:53:43;;;;;;;;;;;;;;;23.63;40.47;100618.75;4486383;31;34398;-75
2023/09/05 01:56:10;;;;;;;;;;;;;;;23.70;40.50;100612.56;4489182;31;34929;-74
2023/09/05 01:58:38;;;;;;;;;;;;;;;23.32;41.18;100608.88;4488279;31;34839;-75
2023/09/05 02:01:05;;;;;;;;;;;;;;;23.46;40.97;100610.72;4490887;31;34874;-74
2023/09/05 02:03:32;;;;;;;;;;;;;;;23.18;41.37;100597.38;4489802;31;33504;-74
2023/09/05 02:06:00;;;;;;;;;;;;;;;22.69;42.39;100599.63;4489586;31;33878;-74
2023/09/05 02:08:27;;;;;;;;;;;;;;;22.95;41.94;100592.78;4493776;31;33884;-74
2023/09/05 02:10:55;;;;;;;5.53;2.17;;;;;;;23.35;41.14;100593.06;4495612;31;33963;-74
2023/09/05 02:13:22;;;;;;;;;;;;;;;22.94;41.85;100601.56;4487707;31;33349;-74
2023/09/05 02:15:50;;;;;;;;;;;;;;;23.08;41.68;100598.16;4493423;31;33944;-74
2023/09/05 02:18:17;;;;;;;;;;;;;;;22.94;41.77;100600.69;4489891;31;33990;-74
2023/09/05 02:20:45;;;;;;;;;;;;;;;23.58;40.90;100599.31;4492039;31;33599;-74
2023/09/05 02:23:12;;;;;;;;;;;;;;;23.22;41.50;100604.44;4486945;31;32836;-75
2023/09/05 02:25:39;;;;;;;;;;;;;;;23.50;40.71;100608.09;4493867;31;34807;-74
2023/09/05 02:28:07;;;;;;;;;;;;;;;23.22;41.30;100609.72;4486477;31;33671;-74
2023/09/05 02:30:36;;;;;;;;;;;;;;;23.14;41.49;100608.75;4487031;31;33989;-74
2023/09/05 02:33:08;;;;;;;;;;;;;;;23.08;41.62;100614.00;4490058;31;34149;-74
2023/09/05 02:35:36;;;;;;;;;;;;;;;23.19;41.34;100599.13;4494185;31;34178;-74
2023/09/05 02:38:03;;;;;;;4.47;2.28;;;;;;;23.34;41.08;100612.41;4474812;31;33800;-74
2023/09/05 02:40:30;;;;;;;;;;;;;;;22.90;41.90;100598.91;4489426;31;34758;-74
2023/09/05 02:42:58;;;;;;;;;;;;;;;22.69;42.35;100615.47;4497102;31;34334;-75
2023/09/05 02:45:25;;;;;;;;;;;;;;;22.91;41.83;100606.84;4486087;31;34021;-74
2023/09/05 02:47:52;;;;;;;;;;;;;;;22.72;42.41;100610.22;4494747;31;34264;-74
2023/09/05 02:50:20;;;;;;;;;;;;;;;22.24;43.56;100622.94;4470792;32;33591;-74
2023/09/05 02:52:47;;;;;;;;;;;;;;;22.60;42.80;100604.81;4491160;31;33993;-74
2023/09/05 02:55:15;;;;;;;;;;;;;;;22.65;42.74;100613.66;4489786;31;34849;-74
2023/09/05 02:57:42;;;;;;;;;;;;;;;22.89;42.06;100612.97;4489788;31;34196;-74
2023/09/05 03:00:10;;;;;;;;;;;;;;;22.81;42.25;100610.25;4489498;31;33853;-74
2023/09/05 03:02:40;;;;;;;;;;;;;;;22.92;41.99;100615.63;4487405;31;33181;-74
2023/09/05 03:05:08;;;;;;;;;;;;;;;22.89;41.83;100611.22;4496482;31;33390;-74
2023/09/05 03:07:35;;;;;;;;;;;;;;;22.54;42.45;100614.47;4467674;31;34034;-74
2023/09/05 03:10:03;;;;;;;;;;;;;;;22.78;42.25;100620.81;4484975;31;34861;-74
2023/09/05 03:12:30;;;;;;;;;;;;;;;22.73;42.40;100625.19;4495193;31;33206;-74
2023/09/05 03:14:58;;;;;;;;;;;;;;;22.96;41.87;100617.44;4487309;31;34230;-74
2023/09/05 03:17:25;;;;;;;;;;;;;;;22.86;41.93;100624.41;4495933;31;32787;-74
2023/09/05 03:19:53;;;;;;;;;;;;;;;23.05;41.58;100629.87;4495083;31;34325;-75
2023/09/05 03:22:20;;;;;;;;;;;;;;;23.21;41.21;100621.16;4477774;31;33838;-74
2023/09/05 03:24:47;;;;;;;;;;;;;;;23.07;41.30;100621.06;4494428;31;34993;-74
2023/09/05 03:27:15;;;;;;;;;;;;;;;22.97;41.58;100624.50;4491029;31;34032;-74
2023/09/05 03:29:42;;;;;;;;;;;;;;;22.45;42.67;100632.88;4491828;31;34321;-75
2023/09/05 03:32:09;;;;;;;;;;;;;;;23.12;41.18;100632.56;4491186;31;33610;-74
2023/09/05 03:34:37;;;;;;;;;;;;;;;23.03;41.49;100642.19;4490369;31;34905;-74
2023/09/05 03:37:06;;;;;;;;;;;;;;;23.35;40.87;100642.38;4473804;31;34128;-74
2023/09/05 03:39:34;;;;;;;;;;;;;;;22.86;41.67;100645.53;4479280;31;33395;-74
2023/09/05 03:42:01;;;;;;;;;;;;;;;23.05;41.25;100643.09;4492005;31;33305;-74
2023/09/05 03:44:28;;;;;;;;;;;;;;;23.14;41.31;100651.06;4500383;31;33523;-74
2023/09/05 03:46:57;;;;;;;;;;;;;;;23.27;40.98;100647.63;4498379;31;34042;-74
2023/09/05 03:49:25;;;;;;;;;;;;;;;23.18;41.21;100647.59;4494881;31;34101;-74
2023/09/05 03:51:56;;;;;;;;;;;;;;;23.51;40.53;100659.25;4486993;31;34075;-75
2023/09/05 03:54:24;;;;;;;;;;;;;;;23.51;40.37;100652.19;4486464;31;34699;-74
2023/09/05 03:56:52;;;;;;;;;;;;;;;23.95;39.50;100658.56;4489404;31;34915;-74
2023/09/05 03:59:20;;;;;;;;;;;;;;;23.28;40.86;100659.97;4489635;31;34300;-74
2023/09/05 04:01:49;;;;;;;;;;;;;;;24.08;39.52;100670.09;4495609;31;33282;-74
2023/09/05 04:04:16;;;;;;;;;;;;;;;24.16;39.19;100667.47;4500099;31;35046;-74
2023/09/05 04:06:43;;;;;;;;;;;;;;;23.71;39.64;100665.50;4498954;31;33935;-74
2023/09/05 04:09:12;;;;;;;;;;;;;;;23.78;39.73;100665.50;4472884;31;32397;-74
2023/09/05 04:11:39;;;;;;;;;;;;;;;24.12;39.27;100670.09;4494251;31;34173;-75
2023/09/05 04:14:07;;;;;;;;;;;;;;;23.88;39.65;100672.66;4491969;31;34296;-75
2023/09/05 04:16:34;;;;;;;;;;;;;;;24.36;38.84;100676.34;4494374;31;35112;-74
2023/09/05 04:19:01;;;;;;;;;;;;;;;23.89;39.35;100679.72;4487540;31;34768;-75
2023/09/05 04:21:28;;;;;;;;;;;;;;;23.98;39.27;100679.75;4488963;31;33881;-75
2023/09/05 04:23:56;;;;;;;;;;;;;;;24.22;38.91;100678.06;4491069;31;34074;-75
2023/09/05 04:26:28;;;;;;;;;;;;;;;24.89;37.90;100677.31;4485937;31;34781;-75
2023/09/05 04:28:55;;;;;;;;;;;;;;;24.77;38.14;100672.03;4491998;31;34297;-75
2023/09/05 04:31:23;;;;;;;;;;;;;;;24.99;37.79;100672.91;4494306;31;33477;-75
2023/09/05 04:33:51;;;;;;;;;;;;;;;25.14;37.14;100678.19;4488530;31;34316;-75
2023/09/05 04:36:19;;;;;;;;;;;;;;;24.75;37.49;100685.28;4495682;31;34258;-74
2023/09/05 04:38:49;;;;;;;;;;;;;;;24.89;37.78;100679.97;4494236;31;33835;-75
2023/09/05 04:41:19;;;;;;;;;;;;;;;24.60;38.23;100685.25;4488664;31;32620;-75
2023/09/05 04:43:50;;;;;;;;;;;;;;;25.56;36.57;100683.47;4487638;31;35138;-74
2023/09/05 04:46:17;;;;;;;;;;;;;;;24.85;37.69;100687.03;4492148;31;34120;-75
2023/09/05 04:48:44;;;;;;;;;;;;;;;24.85;37.69;100687.03;4488249;31;34221;-75
2023/09/05 04:51:12;;;;;;;;;;;;;;;25.19;37.32;100681.72;4485720;31;33513;-74
2023/09/05 04:53:41;;;;;;;;;;;;;;;24.74;38.05;100691.44;4486685;31;34020;-75
2023/09/05 04:56:08;;;;;;;;;;;;;;;24.82;38.13;100687.06;4490534;31;35053;-74
2023/09/05 04:58:35;;;;;;;;;;;;;;;25.31;36.78;100687.03;4491985;31;33616;-75
2023/09/05 05:01:04;;;;;;;;;;;;;;;25.52;36.25;100693.19;4485411;31;33750;-75
2023/09/05 05:03:32;;;;;;;;;;;;;;;25.25;37.16;100687.06;4491014;31;33813;-76
2023/09/05 05:06:00;;;;;;;;;;;;;;;25.13;37.67;100702.94;4486381;31;35067;-75
2023/09/05 05:08:28;;;;;;;;;;;;;;;25.31;37.03;100697.66;4489500;31;34460;-75
2023/09/05 05:10:55;;;;;;;;;;;;;;;25.59;36.39;100697.56;4489146;31;33384;-75
2023/09/05 05:13:23;;;;;;;;;;;;;;;25.63;36.75;100704.66;4490411;31;35046;-75
2023/09/05 05:15:50;;;;;;;;;;;;;;;25.88;36.55;100701.91;4492516;31;33982;-75
2023/09/05 05:18:17;;;;;;;;;;;;;;;26.00;36.08;100704.56;4491873;31;33986;-76
2023/09/05 05:20:45;;;;;;;;;;;;;;;25.90;35.61;100708.09;4490539;31;33194;-76
2023/09/05 05:23:13;;;;;;;;;;;;;;;26.13;35.74;100704.50;4488108;31;34859;-76
2023/09/05 05:25:40;;;;;;;;;;;;;;;26.54;34.90;100711.34;4490590;31;34198;-76
2023/09/05 05:28:08;;;;;;;;;;;;;;;26.40;34.94;100709.66;4493876;31;33967;-76
2023/09/05 05:30:36;;;;;;;;;;;;;;;26.38;35.22;100711.44;4488189;31;32938;-77
2023/09/05 05:33:04;;;;;;;;;;;;;;;26.11;35.34;100706.28;4487498;31;34431;-78
2023/09/05 05:35:32;;;;;;;;;;;;;;;26.11;35.79;100700.97;4483434;31;32215;-76
2023/09/05 05:38:00;;;;;;;;;;;;;;;26.24;35.40;100706.22;4473773;32;34094;-76
2023/09/05 05:40:27;;;;;;;;;;;;;;;26.22;35.70;100707.13;4492921;31;33312;-76
2023/09/05 05:42:55;;;;;;;;;;;;;;;26.16;35.87;100704.50;4488022;31;34632;-76
2023/09/05 05:45:22;;;;;;;;;;;;;;;26.07;36.11;100703.62;4484524;31;35413;-76
2023/09/05 05:47:49;;;;;;;;;;;;;;;26.58;35.32;100710.44;4490590;31;34919;-76
2023/09/05 05:50:17;;;;;;;;;;;;;;;26.39;35.75;100713.22;4498007;31;32583;-76
2023/09/05 05:52:46;;;;;;;;;;;;;;;26.78;35.37;100724.53;4489075;31;34226;-76
2023/09/05 05:55:14;;;;;;;4.60;1.83;;;;;;;26.53;35.23;100721.09;4478291;31;33588;-76
2023/09/05 05:57:42;;;;;;;;;;;;;;;26.53;34.96;100710.47;4490465;31;34221;-76
2023/09/05 06:00:12;;;;;;;4.97;2.03;;;;;;;26.38;35.08;100711.44;4483850;31;35304;-76
2023/09/05 06:02:40;;;;;;;;;;;;;;;26.15;35.99;100710.69;4491104;31;33683;-75
2023/09/05 06:05:07;;;;;;;;;;;;;;;26.45;35.93;100713.19;4486492;31;33673;-76
2023/09/05 06:07:35;;;;;;;;;;;;;;;26.31;36.31;100712.41;4469941;31;33492;-76
2023/09/05 06:10:02;;;;;;;;;;;;;;;26.65;35.27;100709.56;4468085;32;34147;-76
2023/09/05 06:12:30;;;;;;;;;;;;;;;26.41;35.86;100699.94;4494928;31;34279;-76
2023/09/05 06:14:57;;;;;;;;;;;;;;;27.03;34.13;100692.44;4470504;32;34876;-76
2023/09/05 06:17:24;;;;;;;;;;;;;;;26.63;34.37;100701.59;4485459;31;34036;-76
2023/09/05 06:19:52;;;;;;;;;;;;;;;26.71;34.07;100704.19;4489500;31;33457;-76
2023/09/05 06:22:19;;;;;;;5.57;2.10;;;;;;;26.99;33.94;100698.66;4494657;31;33893;-76
2023/09/05 06:24:47;;;;;;;5.50;2.17;;;;;;;26.68;34.40;100698.91;4487571;31;34043;-77
2023/09/05 06:27:14;;;;;;;3.55;1.87;;;;;;;26.82;34.51;100694.34;4491666;31;34494;-78
2023/09/05 06:29:42;;;;;;;;;;;;;;;27.33;33.72;100701.03;4484928;31;34054;-75
2023/09/05 06:32:09;;;;;;;;;;;;;;;27.59;33.62;100701.66;4491301;31;33652;-76
2023/09/05 06:34:37;;;;;;;;;;;;;;;27.62;32.82;100706.97;4492167;31;34214;-81
2023/09/05 06:37:04;;;;;;;3.65;1.92;;;;;;;27.63;33.04;100711.37;4487750;31;33969;-76
2023/09/05 06:39:33;;;;;;;;;;;;;;;27.72;32.55;100706.81;4490618;31;34011;-76
2023/09/05 06:42:01;;;;;;;5.93;2.10;;;;;;;27.39;33.46;100714.28;4493620;31;34681;-76
2023/09/05 06:44:30;;;;;;;;;;;;;;;27.70;33.23;100706.88;4496593;31;33917;-76
2023/09/05 06:46:58;;;;;;;;;;;;;;;27.50;32.96;100709.72;4489318;31;34540;-77
2023/09/05 06:49:26;;;;;;;6.25;2.55;;;;;;;27.75;32.55;100712.13;4492147;31;33905;-75
2023/09/05 06:51:53;;;;;;;;;;;;;;;27.68;32.57;100705.09;4494257;31;34039;-76
2023/09/05 06:54:20;;;;;;;;;;;;;;;27.73;32.68;100708.59;4490606;31;34702;-75
2023/09/05 06:56:48;;;;;;;5.00;2.17;;;;;;;28.03;32.27;100715.37;4485041;31;34013;-75
2023/09/05 06:59:18;;;;;;;3.60;2.40;;;;;;;27.71;32.51;100711.28;4473386;31;34034;-75
2023/09/05 07:01:46;;;;;;;5.22;2.30;;;;;;;27.66;32.78;100705.13;4486724;31;33220;-76
2023/09/05 07:04:14;;;;;;;5.47;2.40;;;;;;;27.96;32.54;100711.03;4485535;32;33620;-75
2023/09/05 07:06:41;;;;;;;3.60;2.03;;;;;;;28.14;32.45;100708.13;4471845;31;33894;-75
2023/09/05 07:09:09;;;;;;;;;;;;;;;28.50;31.73;100702.31;4490479;31;33328;-75
2023/09/05 07:11:36;;;;;;;4.87;2.40;;;;;;;27.99;32.57;100710.97;4495546;31;34702;-75
2023/09/05 07:14:04;;;;;;;6.47;2.05;;;;;;;28.33;31.98;100711.41;4477496;31;33552;-74
2023/09/05 07:16:32;;;;;;;7.32;2.15;;;;;;;27.95;32.89;100719.91;4481908;31;33804;-74
2023/09/05 07:19:02;;;;;;;4.43;2.20;;;;;;;27.99;32.58;100714.53;4488042;31;33287;-75
2023/09/05 07:21:30;;;;;;;4.95;2.10;;;;;;;28.34;32.32;100713.19;4494845;31;34004;-75
2023/09/05 07:23:58;;;;;;;4.10;2.00;;;;;;;28.35;32.50;100716.72;4485829;31;34848;-75
2023/09/05 07:26:26;;;;;;;4.30;2.00;;;;;;;28.67;31.66;100721.63;4488316;31;33458;-76
2023/09/05 07:28:54;;;;;;;4.03;2.08;;;;;;;28.99;31.50;100712.22;4496088;31;33440;-76
2023/09/05 07:31:22;;;;;;;4.43;1.90;;;;;;;28.94;30.92;100711.44;4488717;31;32437;-75
2023/09/05 07:33:50;;;;;;;4.93;2.00;;;;;;;28.83;31.33;100720.47;4493673;31;34160;-75
2023/09/05 07:36:17;;;;;;;4.50;2.33;;;;;;;28.65;31.83;100707.44;4488788;31;34198;-74
2023/09/05 07:38:45;;;;;;;4.55;2.30;;;;;;;28.76;31.06;100710.84;4490756;31;33493;-74
2023/09/05 07:41:12;;;;;;;5.60;2.12;;;;;;;28.86;31.46;100716.00;4488695;31;33626;-75
2023/09/05 07:43:40;;;;;;;4.40;2.37;;;;;;;29.07;31.37;100709.44;4493480;31;34647;-75
2023/09/05 07:46:07;;;;;;;5.78;2.20;;;;;;;29.19;31.39;100720.81;4489676;31;33439;-75
2023/09/05 07:48:35;;;;;;;5.75;2.30;;;;;;;28.52;32.32;100727.19;4485936;31;33588;-74
2023/09/05 07:51:05;;;;;;;5.62;2.30;;;;;;;28.97;31.83;100719.38;4490928;31;33947;-76
2023/09/05 07:53:35;;;;;;;6.70;2.15;;;;;;;29.01;31.82;100731.75;4487407;31;34610;-75
2023/09/05 07:56:03;;;;;;;6.95;2.50;;;;;;;29.69;30.74;100730.56;4484966;31;33677;-75
2023/09/05 07:58:31;;;;;;;5.80;2.47;;;;;;;29.67;30.64;100729.72;4489240;31;35304;-75
2023/09/05 08:00:59;;;;;;;4.32;2.60;;;;;;;29.50;30.43;100727.41;4484117;32;34009;-75
2023/09/05 08:03:28;;;;;;;3.90;2.20;;;;;;;29.77;29.88;100734.03;4485121;32;33807;-76
2023/09/05 08:05:56;;;;;;;5.10;2.42;;;;;;;29.88;30.24;100725.78;4484658;32;34567;-74
2023/09/05 08:08:23;;;;;;;5.32;2.15;;;;;;;29.67;30.48;100719.03;4485038;31;34122;-76
2023/09/05 08:10:51;;;;;;;3.40;1.87;;;;;;;30.21;29.94;100734.91;4489466;31;34045;-75
2023/09/05 08:13:19;;;;;;;3.17;2.03;;;;;;;30.81;28.88;100730.00;4471576;32;33719;-75
2023/09/05 08:15:47;;;;;;;7.65;2.12;;;;;;;30.83;28.37;100730.84;4489690;31;33557;-75
2023/09/05 08:18:15;;;;;;;4.12;1.98;;;;;;;31.10;28.70;100727.53;4481992;31;31676;-75
2023/09/05 08:20:43;;;;;;;5.57;2.20;;;;;;;31.09;28.43;100715.06;4498027;31;33611;-75
2023/09/05 08:23:11;;;;;;;5.35;2.40;;;;;;;30.95;28.37;100718.09;4485083;31;33749;-76
2023/09/05 08:25:39;;;;;;;4.25;2.28;;;;;;;31.11;28.37;100718.56;4485869;31;34251;-77
2023/09/05 08:28:06;;;;;;;4.78;2.20;;;;;;;31.20;28.49;100716.59;4477211;31;34474;-76
2023/09/05 08:30:34;;;;;;;4.78;2.20;;;;;;;31.11;28.15;100715.88;4488987;31;34678;-76
2023/09/05 08:33:02;;;;;;;3.50;1.98;;;;;;;31.51;28.16;100717.56;4473278;31;34045;-76
2023/09/05 08:35:30;;;;;;;4.50;1.80;;;;;;;31.71;27.70;100716.97;4486196;31;33954;-76
2023/09/05 08:38:02;;;;;;;4.93;2.20;;;;;;;31.74;27.88;100721.41;4484754;31;33124;-76
2023/09/05 08:40:33;;;;;;;6.93;2.30;;;;;;;32.66;26.28;100715.09;4486461;31;33854;-76
2023/09/05 08:43:02;;;;;;;5.22;2.00;;;;;;;32.81;25.75;100709.22;4486786;31;34650;-76
2023/09/05 08:45:30;;;;;;;4.15;2.20;;;;;;;33.10;25.56;100699.34;4487147;31;33437;-76
2023/09/05 08:47:58;;;;;;;3.42;1.80;;;;;;;32.63;26.26;100705.34;4487465;31;33024;-76
2023/09/05 08:50:28;;;;;;;3.72;1.95;;;;;;;32.74;26.24;100705.00;4485096;31;33717;-77
2023/09/05 08:52:58;;;;;;;6.35;2.00;;;;;;;32.99;26.14;100699.69;4476963;31;34032;-77
2023/09/05 08:55:26;;;;;;;4.45;2.05;;;;;;;33.60;25.73;100699.38;4471871;31;34410;-76
2023/09/05 08:57:55;;;;;;;3.75;2.08;;;;;;;33.44;25.32;100701.75;4485906;31;32845;-77
2023/09/05 09:00:24;;;;;;;4.12;2.05;;;;;;;33.71;24.62;100701.72;4497382;31;34009;-77
2023/09/05 09:02:53;;;;;;;6.20;1.80;;;;;;;33.82;24.59;100696.81;4481966;31;33975;-77
2023/09/05 09:05:21;;;;;;;4.35;2.08;;;;;;;34.22;23.80;100692.59;4473064;31;32687;-77
2023/09/05 09:07:48;;;;;;;;;;;;;;;34.14;24.28;100688.44;4498763;31;33296;-77
2023/09/05 09:10:20;;;;;;;3.85;2.00;;;;;;;33.77;24.72;100684.47;4497150;31;34094;-77
2023/09/05 09:12:55;;;;;;;;;;;;;;;34.17;23.92;100689.22;4482979;31;33992;-77
2023/09/05 09:15:26;;;;;;;3.60;1.92;;;;;;;34.54;23.64;100674.31;4471698;32;34027;-77
2023/09/05 09:17:54;;;;;;;4.10;2.15;;;;;;;34.88;23.55;100674.75;4489216;31;33172;-77
2023/09/05 09:20:23;;;;;;;5.22;2.37;;;;;;;34.91;23.29;100670.09;4488476;31;33715;-77
2023/09/05 09:22:51;;;;;;;4.90;2.28;;;;;;;34.63;23.64;100673.03;4495201;31;34778;-76
2023/09/05 09:25:22;;;;;;;5.25;2.22;;;;;;;34.63;23.40;100668.53;4492966;31;34022;-77
2023/09/05 09:27:53;;;;;;;;;;;;;;;34.40;23.98;100673.97;4491337;31;32812;-76
2023/09/05 09:30:23;;;;;;;;;;;;;;;34.04;24.41;100666.41;4482418;31;34621;-76
2023/09/05 09:32:51;;;;;;;;;;;;;;;34.86;23.06;100661.34;4483542;31;34738;-76
2023/09/05 09:35:18;;;;;;;;;;;;;;;34.71;23.58;100659.28;4484886;31;33448;-76
2023/09/05 09:37:49;;;;;;;;;;;;;;;33.98;24.23;100666.63;4489283;31;33980;-77
2023/09/05 09:40:16;;;;;;;;;;;;;;;34.47;24.13;100654.84;4487207;31;33462;-76
2023/09/05 09:42:49;;;;;;;;;;;;;;;34.41;23.87;100654.22;4488648;31;34681;-75
2023/09/05 09:45:18;;;;;;;4.47;2.20;;;;;;;34.09;23.94;100642.91;4481856;31;34599;-76
2023/09/05 09:47:47;;;;;;;3.85;1.65;;;;;;;33.58;24.44;100652.00;4484722;31;33143;-77
2023/09/05 09:50:19;;;;;;;;;;;;;;;33.91;23.88;100649.88;4474551;31;32569;-77
2023/09/05 09:52:49;;;;;;;;;;;;;;;34.52;23.61;100651.97;4485046;31;34777;-78
2023/09/05 09:55:16;;;;;;;;;;;;;;;34.75;23.77;100656.44;4471747;32;34152;-79
2023/09/05 09:57:56;;;;;;;;;;;;;;;34.84;22.78;100652.47;4478789;32;33299;-78
2023/09/05 10:00:23;;;;;;;;;;;;;;;34.53;23.32;100651.00;4485409;31;33841;-78
2023/09/05 10:02:52;;;;;;;;;;;;;;;34.18;23.05;100645.25;4473140;31;34046;-80
2023/09/05 10:05:19;;;;;;;;;;;;;;;34.36;23.75;100658.91;4477508;32;34231;-79
2023/09/05 10:07:47;;;;;;;;;;;;;;;34.75;23.91;100647.47;4486215;31;32806;-79
2023/09/05 10:10:15;;;;;;;;;;;;;;;34.86;23.19;100642.50;4477694;31;34324;-80
2023/09/05 10:12:43;;;;;;;;;;;;;;;34.47;23.83;100638.69;4492914;31;34743;-81
2023/09/05 10:15:11;;;;;;;;;;;;;;;34.52;23.79;100633.16;4466449;31;32475;-79
2023/09/05 10:17:39;;;;;;;;;;;;;;;34.60;23.92;100632.81;4476474;31;32787;-81
2023/09/05 10:20:07;;;;;;;;;;;;;;;34.74;23.56;100640.34;4490290;31;34920;-78
2023/09/05 10:22:36;;;;;;;;;;;;;;;34.59;23.96;100631.91;4487018;31;34240;-79
2023/09/05 10:25:04;;;;;;;;;;;;;;;34.56;24.36;100632.06;4474060;31;33710;-79
2023/09/05 10:27:31;;;;;;;;;;;;;;;34.61;23.71;100624.66;4471586;31;33283;-78
2023/09/05 10:29:59;;;;;;;;;;;;;;;35.26;23.32;100627.31;4488078;31;34177;-78
2023/09/05 10:32:27;;;;;;;;;;;;;;;35.02;23.30;100623.84;4486949;31;34306;-78
2023/09/05 10:34:57;;;;;;;;;;;;;;;35.36;22.98;100623.25;4491541;31;33548;-78
2023/09/05 10:37:38;;;;;;;;;;;;;;;35.00;23.26;100623.03;4478346;31;32417;-79
2023/09/05 10:40:08;;;;;;;;;;;;;;;35.61;23.02;100622.16;4470589;32;34942;-79
2023/09/05 10:42:56;;;;;;;;;;;;;;;34.86;23.56;100613.75;4486301;31;33967;-79
2023/09/05 10:45:23;;;;;;;;;;;;;;;35.21;23.59;100614.03;4493638;31;33800;-78
2023/09/05 10:47:53;;;;;;;;;;;;;;;35.13;23.02;100600.03;4497759;31;33444;-79
2023/09/05 10:50:21;;;;;;;;;;;;;;;35.32;22.87;100610.88;4487815;31;35037;-79
2023/09/05 10:53:11;;;;;;;;;;;;;;;35.63;23.06;100607.63;4481550;31;33758;-80
2023/09/05 10:55:44;;;;;;;5.47;1.87;;;;;;;35.71;22.53;100604.62;4490710;31;35030;-79
2023/09/05 10:58:31;;;;;;;;;;;;;;;35.27;23.16;100606.66;4475305;31;32161;-79
2023/09/05 11:01:00;;;;;;;;;;;;;;;34.82;23.77;100600.50;4488412;31;34618;-80
2023/09/05 11:03:34;;;;;;;;;;;;;;;35.40;23.25;100603.31;4477745;31;35819;-79
2023/09/05 11:06:11;;;;;;;;;;;;;;;35.38;23.66;100599.81;4488017;31;34863;-77
2023/09/05 11:08:38;;;;;;;;;;;;;;;35.92;22.39;100596.47;4493831;31;33775;-80
2023/09/05 11:11:06;;;;;;;;;;;;;;;35.60;22.72;100593.44;4494451;31;33998;-80
2023/09/05 11:13:34;;;;;;;;;;;;;;;34.78;23.72;100588.12;4490224;31;34051;-82
2023/09/05 11:16:03;;;;;;;;;;;;;;;35.24;23.64;100588.81;4487069;31;33725;-81
2023/09/05 11:18:30;;;;;;;;;;;;;;;35.40;23.11;100592.53;4489885;31;33514;-81
2023/09/05 11:20:59;;;;;;;;;;;;;;;35.49;22.85;100602.03;4489287;31;33466;-81
2023/09/05 11:23:28;;;;;;;;;;;;;;;35.14;23.70;100587.47;4479431;31;32527;-81
2023/09/05 11:25:56;;;;;;;;;;;;;;;35.24;23.68;100587.00;4496261;31;34000;-80
2023/09/05 11:28:24;;;;;;;;;;;;;;;35.15;23.12;100594.56;4491921;31;33539;-81
2023/09/05 11:30:56;;;;;;;;;;;;;;;35.23;23.64;100590.66;4479709;31;32792;-81
2023/09/05 11:33:25;;;;;;;;;;;;;;;35.38;23.77;100588.19;4491186;31;34153;-81
2023/09/05 11:35:53;;;;;;;;;;;;;;;35.83;22.40;100586.97;4489373;31;34188;-80
2023/09/05 11:38:21;;;;;;;;;;;;;;;36.05;22.18;100573.34;4484649;32;33448;-80
2023/09/05 11:40:52;;;;;;;3.03;1.70;;;;;;;35.67;23.16;100581.47;4489394;31;33792;-81
2023/09/05 11:43:23;;;;;;;;;;;;;;;35.68;22.52;100575.13;4493413;31;33887;-82
2023/09/05 11:45:58;;;;;;;;;;;;;;;35.31;23.81;100578.63;4491088;31;34213;-81
2023/09/05 11:48:28;;;;;;;;;;;;;;;35.99;22.84;100579.06;4493635;31;33487;-81
2023/09/05 11:50:56;;;;;;;;;;;;;;;36.05;22.28;100572.50;4473031;31;34139;-81
2023/09/05 11:53:23;;;;;;;;;;;;;;;36.27;22.71;100561.53;4490662;31;33435;-80
2023/09/05 11:55:51;;;;;;;;;;;;;;;36.74;21.63;100550.13;4500988;31;33684;-80
2023/09/05 11:58:19;;;;;;;;;;;;;;;35.43;22.58;100560.09;4478578;31;32627;-80
2023/09/05 12:00:50;;;;;;;;;;;;;;;34.79;23.34;100554.88;4484635;31;33869;-80
2023/09/05 12:03:18;;;;;;;;;;;;;;;34.39;23.72;100561.97;4495665;31;34587;-80
2023/09/05 12:05:51;;;;;;;;;;;;;;;34.15;24.40;100556.69;4485439;32;33836;-81
2023/09/05 12:08:20;;;;;;;;;;;;;;;34.05;24.28;100555.25;4486407;31;33862;-81
2023/09/05 12:11:03;;;;;;;;;;;;;;;33.97;24.55;100554.69;4494177;31;33972;-81
2023/09/05 12:13:38;;;;;;;;;;;;;;;34.14;24.69;100549.50;4476236;32;33571;-81
2023/09/05 12:16:08;;;;;;;;;;;;;;;34.20;24.12;100543.91;4492330;31;34252;-81
2023/09/05 12:18:37;;;;;;;;;;;;;;;35.08;23.56;100547.31;4499566;31;33147;-80
2023/09/05 12:21:08;;;;;;;;;;;;;;;35.34;23.04;100541.66;4484017;31;34338;-81
2023/09/05 12:23:36;;;;;;;;;;;;;;;35.11;23.01;100547.19;4488252;31;35250;-81